PWSweather.com
Personal Weather Stations
Station Observations
ABQWX
Albuquerque, NM 87110

Albuquerque, NM 87110

Lat: 35.1305, Lon: -106.58571

Elevation: 5210

Station Type: LaCrosse

http://www.albuquerqueweather.info/

High Low Average
Temperature 88.2°F31.2°C 42.5°F5.8°C 64.6°F18.1°C
Dew Point 37.9°F3.3°C 20.9°F-6.2°C 27.3°F-2.6°C
Winds 7.0 mph 11.3 kmh 0.2 mph 0.3 kmh 2.0 mph SSW3.2 kmh SSW
Wind Gusts 11.4 mph18.3 kmh 0.7 mph1.1 kmh 5.0 mph8.0 kmh
Humidity 45% 14% 26%
Pressure 30.28 in1025.4 mb 30.09 in1019.0 mb -
Precipitation 0.00 in0.0 mm - -
Hour Temp Dew Point Humidity Winds Wind Gusts Pressure Precip Precip Rate Daily Precip Total
12:00 AM 57.3°F14.1°C 21.7°F-5.7°C 25% 2.1 mph SSW3.4 kmh SSW 4.0 mph6.4 kmh 30.21 in1023.0 mb 0.00 in0.0 mm 0.00 in0.0 mm 0.00 in0.0 mm
01:00 AM 54.8°F12.7°C 21.4°F-5.9°C 27% 0.8 mph ESE1.3 kmh ESE 1.8 mph2.9 kmh 30.21 in1023.0 mb 0.00 in0.0 mm 0.00 in0.0 mm 0.00 in0.0 mm
02:00 AM 52.6°F11.4°C 21.2°F-6.0°C 29% 3.4 mph E5.5 kmh E 4.9 mph7.9 kmh 30.20 in1022.7 mb 0.00 in0.0 mm 0.00 in0.0 mm 0.00 in0.0 mm
03:00 AM 49.7°F9.8°C 21.0°F-6.1°C 32% 0.9 mph E1.4 kmh E 1.8 mph2.9 kmh 30.20 in1022.7 mb 0.00 in0.0 mm 0.00 in0.0 mm 0.00 in0.0 mm
04:00 AM 47.2°F8.4°C 20.9°F-6.2°C 35% 0.7 mph SSE1.1 kmh SSE 2.7 mph4.3 kmh 30.21 in1023.0 mb 0.00 in0.0 mm 0.00 in0.0 mm 0.00 in0.0 mm
05:00 AM 45.9°F7.7°C 21.7°F-5.7°C 38% 1.0 mph SSE1.6 kmh SSE 3.1 mph5.0 kmh 30.22 in1023.4 mb 0.00 in0.0 mm 0.00 in0.0 mm 0.00 in0.0 mm
06:00 AM 44.3°F6.8°C 21.5°F-5.8°C 40% 0.2 mph E0.3 kmh E 0.7 mph1.1 kmh 30.23 in1023.7 mb 0.00 in0.0 mm 0.00 in0.0 mm 0.00 in0.0 mm
07:00 AM 42.5°F5.8°C 21.0°F-6.1°C 42% 1.2 mph ENE1.9 kmh ENE 1.8 mph2.9 kmh 30.25 in1024.4 mb 0.00 in0.0 mm 0.00 in0.0 mm 0.00 in0.0 mm
08:00 AM 43.8°F6.6°C 23.8°F-4.6°C 45% 1.8 mph E2.9 kmh E 3.1 mph5.0 kmh 30.26 in1024.7 mb 0.00 in0.0 mm 0.00 in0.0 mm 0.00 in0.0 mm
09:00 AM 55.8°F13.2°C 29.3°F-1.5°C 36% 2.5 mph W4.0 kmh W 4.5 mph7.2 kmh 30.27 in1025.1 mb 0.00 in0.0 mm 0.00 in0.0 mm 0.00 in0.0 mm
10:00 AM 64.5°F18.1°C 33.2°F0.7°C 31% 2.0 mph NW3.2 kmh NW 3.8 mph6.1 kmh 30.28 in1025.4 mb 0.00 in0.0 mm 0.00 in0.0 mm 0.00 in0.0 mm
11:00 AM 71.3°F21.8°C 34.6°F1.4°C 26% 2.3 mph WSW3.7 kmh WSW 5.4 mph8.7 kmh 30.27 in1025.1 mb 0.00 in0.0 mm 0.00 in0.0 mm 0.00 in0.0 mm
12:00 PM 77.4°F25.2°C 35.6°F2.0°C 22% 2.0 mph SSE3.2 kmh SSE 4.7 mph7.6 kmh 30.25 in1024.4 mb 0.00 in0.0 mm 0.00 in0.0 mm 0.00 in0.0 mm
01:00 PM 79.6°F26.4°C 36.2°F2.3°C 21% 2.7 mph W4.3 kmh W 5.4 mph8.7 kmh 30.22 in1023.4 mb 0.00 in0.0 mm 0.00 in0.0 mm 0.00 in0.0 mm
02:00 PM 83.0°F28.3°C 35.1°F1.7°C 18% 3.6 mph SW5.8 kmh SW 5.6 mph9.0 kmh 30.18 in1022.0 mb 0.00 in0.0 mm 0.00 in0.0 mm 0.00 in0.0 mm
03:00 PM 84.1°F28.9°C 36.0°F2.2°C 18% 7.0 mph WNW11.3 kmh WNW 11.4 mph18.3 kmh 30.15 in1021.0 mb 0.00 in0.0 mm 0.00 in0.0 mm 0.00 in0.0 mm
04:00 PM 88.2°F31.2°C 37.9°F3.3°C 17% 3.9 mph WNW6.3 kmh WNW 9.8 mph15.8 kmh 30.12 in1020.0 mb 0.00 in0.0 mm 0.00 in0.0 mm 0.00 in0.0 mm
05:00 PM 84.3°F29.1°C 33.2°F0.7°C 16% 5.5 mph SW8.9 kmh SW 8.3 mph13.4 kmh 30.10 in1019.3 mb 0.00 in0.0 mm 0.00 in0.0 mm 0.00 in0.0 mm
06:00 PM 80.5°F26.9°C 30.2°F-1.0°C 16% 3.1 mph W5.0 kmh W 6.3 mph10.1 kmh 30.09 in1019.0 mb 0.00 in0.0 mm 0.00 in0.0 mm 0.00 in0.0 mm
07:00 PM 77.8°F25.4°C 24.8°F-4.0°C 14% 6.7 mph WNW10.8 kmh WNW 10.1 mph16.3 kmh 30.09 in1019.0 mb 0.00 in0.0 mm 0.00 in0.0 mm 0.00 in0.0 mm
08:00 PM 73.5°F23.1°C 24.5°F-4.2°C 16% 2.7 mph WSW4.3 kmh WSW 4.3 mph6.9 kmh 30.11 in1019.6 mb 0.00 in0.0 mm 0.00 in0.0 mm 0.00 in0.0 mm
09:00 PM 69.2°F20.7°C 23.8°F-4.6°C 18% 1.2 mph NW1.9 kmh NW 3.4 mph5.5 kmh 30.13 in1020.3 mb 0.00 in0.0 mm 0.00 in0.0 mm 0.00 in0.0 mm
10:00 PM 63.8°F17.7°C 23.0°F-5.0°C 21% 0.7 mph WNW1.1 kmh WNW 2.0 mph3.2 kmh 30.15 in1021.0 mb 0.00 in0.0 mm 0.00 in0.0 mm 0.00 in0.0 mm
11:00 PM 60.2°F15.7°C 23.2°F-4.9°C 24% 2.0 mph E3.2 kmh E 3.1 mph5.0 kmh 30.16 in1021.3 mb 0.00 in0.0 mm 0.00 in0.0 mm 0.00 in0.0 mm